Terminal Aerodrome Forecast
Issued by NWS

Home | Current Version | Previous Version | Text Only | Print | Product List | Glossary On
Versions: 1 2 3 4 5 6 7 8 9 10 11 12 13 14 15 16
000
FTUS43 KMPX 290520
TAFRNH
TAF
KRNH 290520Z 2906/3006 17014G20KT P6SM BKN150
     FM291000 18017G25KT P6SM -RASN BKN040 OVC090
     FM291300 21016G24KT 6SM -RA BR BKN015 OVC030
     FM291600 28018G27KT P6SM VCSH BKN020 OVC040
     FM291900 31026G35KT P6SM BKN040
     FM300100 30015KT P6SM SKC=

USA.gov is the U.S. government's official web portal to all federal, state and local government web resources and services.